createdAt,value
2023-04-22T00:00:31.036Z,7.3336
2023-04-22T00:01:39.090Z,7.4702
2023-04-22T00:02:47.128Z,7.4574
2023-04-22T00:03:55.207Z,7.3775
2023-04-22T00:05:03.353Z,7.3371
2023-04-22T00:06:11.530Z,7.1990
2023-04-22T00:07:19.420Z,7.2301
2023-04-22T00:08:27.473Z,7.2137
2023-04-22T00:09:35.634Z,7.1681
2023-04-22T00:10:43.558Z,7.0996
2023-04-22T00:11:51.685Z,7.0960
2023-04-22T00:12:59.766Z,6.9529
2023-04-22T00:14:07.782Z,6.8021
2023-04-22T00:15:16.042Z,6.8053
2023-04-22T00:16:23.916Z,6.8885
2023-04-22T00:17:32.025Z,6.9281
2023-04-22T00:18:39.899Z,6.8711
2023-04-22T00:19:47.949Z,6.7818
2023-04-22T00:20:56.179Z,6.7588
2023-04-22T00:22:04.229Z,6.8059
2023-04-22T00:23:12.347Z,6.8122
2023-04-22T00:24:20.343Z,6.7817
2023-04-22T00:25:28.427Z,6.6506
2023-04-22T00:26:36.554Z,6.6897
2023-04-22T00:27:44.422Z,6.6588
2023-04-22T00:28:52.659Z,6.6951
2023-04-22T00:30:00.708Z,6.6205
2023-04-22T00:31:08.804Z,6.5106
2023-04-22T00:32:16.704Z,6.5535
2023-04-22T00:33:24.747Z,6.4755
2023-04-22T00:34:32.806Z,6.4044
2023-04-22T00:35:41.640Z,6.3746
2023-04-22T00:36:49.030Z,6.4927
2023-04-22T00:37:57.218Z,6.4524
2023-04-22T00:39:05.212Z,6.4238
2023-04-22T00:40:13.320Z,6.4753
2023-04-22T00:41:21.329Z,6.4328
2023-04-22T00:42:29.438Z,6.4862
2023-04-22T00:43:37.479Z,6.5734
2023-04-22T00:44:45.547Z,6.6235
2023-04-22T00:45:53.741Z,6.6218
2023-04-22T00:47:01.595Z,6.5764
2023-04-22T00:48:09.699Z,6.5411
2023-04-22T00:49:17.677Z,6.4444
2023-04-22T00:50:26.117Z,6.3998
2023-04-22T00:51:33.989Z,6.3842
2023-04-22T00:52:42.014Z,6.2669
2023-04-22T00:53:50.044Z,5.9171
2023-04-22T00:54:58.139Z,5.5495
2023-04-22T00:56:06.198Z,5.6565
2023-04-22T00:57:14.355Z,5.8730
2023-04-22T00:58:22.291Z,5.8535
2023-04-22T00:59:30.398Z,5.7065
2023-04-22T01:00:38.460Z,5.6723
2023-04-22T01:01:46.442Z,5.7772
2023-04-22T01:02:54.597Z,5.7643
2023-04-22T01:04:02.627Z,5.8373
2023-04-22T01:05:10.954Z,5.9346
2023-04-22T01:06:18.746Z,5.9161
2023-04-22T01:07:26.957Z,5.9392
2023-04-22T01:08:34.930Z,5.9352
2023-04-22T01:09:43.050Z,5.9981
2023-04-22T01:10:51.052Z,5.8930
2023-04-22T01:11:59.112Z,5.8005
2023-04-22T01:13:07.213Z,5.8768
2023-04-22T01:14:15.234Z,5.9195
2023-04-22T01:15:23.305Z,6.0273
2023-04-22T01:16:31.360Z,6.0288
2023-04-22T01:17:39.389Z,5.9882
2023-04-22T01:18:47.388Z,5.7206
2023-04-22T01:19:55.593Z,5.4908
2023-04-22T01:21:03.823Z,5.4961
2023-04-22T01:22:11.947Z,5.5695
2023-04-22T01:23:19.765Z,5.6365
2023-04-22T01:24:27.930Z,5.4927
2023-04-22T01:25:35.896Z,5.4366
2023-04-22T01:26:43.951Z,5.4322
2023-04-22T01:27:52.196Z,5.4475
2023-04-22T01:29:00.121Z,5.4557
2023-04-22T01:30:08.221Z,5.5802
2023-04-22T01:31:16.094Z,5.6929
2023-04-22T01:32:24.203Z,5.7765
2023-04-22T01:33:32.222Z,5.8839
2023-04-22T01:34:40.372Z,5.7986
2023-04-22T01:35:48.604Z,5.7856
2023-04-22T01:36:56.690Z,5.8226
2023-04-22T01:38:04.603Z,5.7454
2023-04-22T01:39:12.720Z,5.7412
2023-04-22T01:40:20.762Z,5.7975
2023-04-22T01:41:28.815Z,5.9693
2023-04-22T01:42:36.873Z,6.0550
2023-04-22T01:43:44.958Z,6.1332
2023-04-22T01:44:53.169Z,5.8068
2023-04-22T01:46:00.944Z,5.6567
2023-04-22T01:47:09.042Z,5.7147
2023-04-22T01:48:17.083Z,5.7490
2023-04-22T01:49:25.255Z,5.6870
2023-04-22T01:50:33.336Z,5.4993
2023-04-22T01:51:41.456Z,5.5449
2023-04-22T01:52:49.618Z,5.7000
2023-04-22T01:53:57.491Z,5.7402
2023-04-22T01:55:05.586Z,5.4251
2023-04-22T01:56:13.641Z,5.4406
2023-04-22T01:57:21.750Z,5.1032
2023-04-22T01:58:29.840Z,5.0624
2023-04-22T01:59:38.194Z,5.2165
2023-04-22T02:00:45.792Z,5.3326
2023-04-22T02:01:53.879Z,5.4021
2023-04-22T02:03:02.282Z,5.4709
2023-04-22T02:04:10.181Z,5.3651
2023-04-22T02:05:18.232Z,5.4808
2023-04-22T02:06:26.329Z,5.5331
2023-04-22T02:07:34.374Z,5.4246
2023-04-22T02:08:42.636Z,5.4610
2023-04-22T02:09:50.977Z,5.5289
2023-04-22T02:10:58.619Z,5.6788
2023-04-22T02:12:06.654Z,5.7351
2023-04-22T02:13:14.722Z,5.2831
2023-04-22T02:14:22.792Z,4.9887
2023-04-22T02:15:30.716Z,5.1156
2023-04-22T02:16:38.798Z,5.1677
2023-04-22T02:17:46.818Z,5.3778
2023-04-22T02:18:55.143Z,5.5264
2023-04-22T02:20:03.166Z,5.5945
2023-04-22T02:21:11.388Z,5.6193
2023-04-22T02:22:19.272Z,5.6823
2023-04-22T02:23:27.294Z,5.6573
2023-04-22T02:24:35.549Z,5.5646
2023-04-22T02:25:43.412Z,5.5259
2023-04-22T02:26:51.490Z,5.4429
2023-04-22T02:27:59.535Z,5.3321
2023-04-22T02:29:07.609Z,5.3565
2023-04-22T02:30:15.648Z,5.5074
2023-04-22T02:31:23.614Z,5.6189
2023-04-22T02:32:31.792Z,5.8318
2023-04-22T02:33:39.907Z,5.9382
2023-04-22T02:34:47.954Z,5.9544
2023-04-22T02:35:56.124Z,5.9365
2023-04-22T02:37:04.084Z,5.8326
2023-04-22T02:38:12.261Z,5.7866
2023-04-22T02:39:20.239Z,5.7643
2023-04-22T02:40:28.399Z,5.5804
2023-04-22T02:41:36.450Z,5.6535
2023-04-22T02:42:44.403Z,5.7448
2023-04-22T02:43:52.497Z,5.5899
2023-04-22T02:45:00.439Z,5.4946
2023-04-22T02:46:08.518Z,5.5611
2023-04-22T02:47:16.587Z,5.6397
2023-04-22T02:48:24.777Z,5.5735
2023-04-22T02:49:32.854Z,5.4467
2023-04-22T02:50:40.949Z,5.4320
2023-04-22T02:51:49.022Z,5.5983
2023-04-22T02:52:57.125Z,5.6920
2023-04-22T02:54:05.191Z,5.8215
2023-04-22T02:55:13.248Z,5.8566
2023-04-22T02:56:21.267Z,5.7803
2023-04-22T02:57:29.518Z,5.7408
2023-04-22T02:58:37.509Z,5.8759
2023-04-22T02:59:45.345Z,5.9756
2023-04-22T03:00:53.440Z,6.1669
2023-04-22T03:02:01.714Z,6.1778
2023-04-22T03:03:09.819Z,6.0572
2023-04-22T03:04:17.843Z,5.9968
2023-04-22T03:05:25.838Z,5.8997
2023-04-22T03:06:33.886Z,5.8875
2023-04-22T03:07:41.961Z,6.0180
2023-04-22T03:08:50.070Z,6.2737
2023-04-22T03:09:58.292Z,6.4088
2023-04-22T03:11:06.125Z,6.4116
2023-04-22T03:12:14.222Z,6.3672
2023-04-22T03:13:22.273Z,6.3170
2023-04-22T03:14:30.252Z,6.2259
2023-04-22T03:15:38.294Z,6.1139
2023-04-22T03:16:46.378Z,6.0153
2023-04-22T03:17:54.565Z,5.9966
2023-04-22T03:19:02.654Z,6.1133
2023-04-22T03:20:10.766Z,6.1887
2023-04-22T03:21:18.777Z,6.0353
2023-04-22T03:22:26.829Z,6.0252
2023-04-22T03:23:34.887Z,5.9567
2023-04-22T03:24:42.949Z,5.8665
2023-04-22T03:25:51.112Z,6.0172
2023-04-22T03:26:59.125Z,6.0426
2023-04-22T03:28:07.148Z,5.9676
2023-04-22T03:29:15.089Z,5.9691
2023-04-22T03:30:23.185Z,5.8329
2023-04-22T03:31:31.304Z,5.6016
2023-04-22T03:32:39.447Z,5.3986
2023-04-22T03:33:47.457Z,5.1986
2023-04-22T03:34:55.576Z,5.2125
2023-04-22T03:36:03.642Z,5.1383
2023-04-22T03:37:11.781Z,5.1318
2023-04-22T03:38:20.115Z,5.1225
2023-04-22T03:39:27.842Z,5.1856
2023-04-22T03:40:35.899Z,5.2775
2023-04-22T03:41:44.038Z,5.3496
2023-04-22T03:42:52.034Z,5.3609
2023-04-22T03:44:01.775Z,5.2987
2023-04-22T03:45:12.870Z,5.2479
2023-04-22T03:46:21.210Z,5.1883
2023-04-22T03:47:29.326Z,5.2232
2023-04-22T03:48:37.226Z,5.2970
2023-04-22T03:49:45.320Z,5.2617
2023-04-22T03:50:53.365Z,5.2670
2023-04-22T03:52:01.441Z,5.3531
2023-04-22T03:53:09.641Z,5.1732
2023-04-22T03:54:17.551Z,4.7040
2023-04-22T03:55:25.639Z,4.8672
2023-04-22T03:56:33.707Z,4.9975
2023-04-22T03:57:41.651Z,5.0380
2023-04-22T03:58:49.732Z,5.0843
2023-04-22T03:59:57.762Z,5.2134
2023-04-22T04:01:05.942Z,5.3044
2023-04-22T04:02:14.125Z,5.3986
2023-04-22T04:03:22.234Z,5.4377
2023-04-22T04:04:30.646Z,5.4555
2023-04-22T04:05:38.339Z,5.5344
2023-04-22T04:06:46.241Z,5.6172
2023-04-22T04:07:54.308Z,5.5781
2023-04-22T04:09:02.468Z,5.5613
2023-04-22T04:10:10.552Z,5.6416
2023-04-22T04:11:18.526Z,5.6903
2023-04-22T04:12:26.517Z,5.8018
2023-04-22T04:13:34.573Z,5.8728
2023-04-22T04:14:42.680Z,5.9947
2023-04-22T04:15:50.924Z,6.0128
2023-04-22T04:16:58.905Z,6.0307
2023-04-22T04:18:07.072Z,6.0052
2023-04-22T04:19:14.997Z,5.9809
2023-04-22T04:20:23.145Z,5.8581
2023-04-22T04:21:31.141Z,5.9098
2023-04-22T04:22:39.242Z,5.8516
2023-04-22T04:23:47.238Z,5.8465
2023-04-22T04:24:55.505Z,5.9384
2023-04-22T04:26:03.423Z,5.9912
2023-04-22T04:27:11.349Z,6.0433
2023-04-22T04:28:19.442Z,6.1036
2023-04-22T04:29:27.511Z,6.0929
2023-04-22T04:30:35.768Z,6.1679
2023-04-22T04:31:44.018Z,6.1812
2023-04-22T04:32:51.917Z,6.1471
2023-04-22T04:33:59.872Z,6.1435
2023-04-22T04:35:08.102Z,6.2337
2023-04-22T04:36:16.071Z,6.1963
2023-04-22T04:37:24.046Z,6.0637
2023-04-22T04:38:32.118Z,5.8854
2023-04-22T04:39:40.523Z,5.7111
2023-04-22T04:40:48.189Z,5.4135
2023-04-22T04:41:56.275Z,5.4419
2023-04-22T04:43:04.340Z,5.5487
2023-04-22T04:44:13.125Z,5.4536
2023-04-22T04:45:20.599Z,5.4000
2023-04-22T04:46:28.748Z,5.4498
2023-04-22T04:47:36.804Z,5.4459
2023-04-22T04:48:44.746Z,5.4660
2023-04-22T04:49:52.849Z,5.3021
2023-04-22T04:51:01.006Z,5.1877
2023-04-22T04:52:09.005Z,5.1400
2023-04-22T04:53:17.020Z,5.1638
2023-04-22T04:54:25.045Z,5.0971
2023-04-22T04:55:33.046Z,5.2552
2023-04-22T04:56:41.130Z,5.2893
2023-04-22T04:57:49.232Z,5.2823
2023-04-22T04:58:57.615Z,5.1930
2023-04-22T05:00:05.514Z,5.1101
2023-04-22T05:01:13.562Z,5.2361
2023-04-22T05:02:21.775Z,5.3536
2023-04-22T05:03:29.816Z,5.3086
2023-04-22T05:04:37.855Z,5.3572
2023-04-22T05:05:45.718Z,5.3645
2023-04-22T05:06:53.815Z,5.4189
2023-04-22T05:08:02.072Z,5.4824
2023-04-22T05:09:09.979Z,5.5157
2023-04-22T05:10:17.925Z,5.5592
2023-04-22T05:11:26.001Z,5.5564
2023-04-22T05:12:34.047Z,5.5230
2023-04-22T05:13:42.262Z,5.5470
2023-04-22T05:14:50.370Z,5.6439
2023-04-22T05:15:58.425Z,5.7093
2023-04-22T05:17:06.391Z,5.7708
2023-04-22T05:18:14.470Z,5.8251
2023-04-22T05:19:22.596Z,5.7219
2023-04-22T05:20:31.612Z,5.7210
2023-04-22T05:21:43.550Z,5.7923
2023-04-22T05:22:51.595Z,5.8141
2023-04-22T05:23:59.592Z,5.8074
2023-04-22T05:25:07.648Z,5.8514
2023-04-22T05:26:15.788Z,6.0710
2023-04-22T05:27:23.923Z,6.1499
2023-04-22T05:28:31.956Z,6.2569
2023-04-22T05:29:40.221Z,6.2533
2023-04-22T05:30:48.100Z,6.2476
2023-04-22T05:31:56.551Z,6.3060
2023-04-22T05:33:04.301Z,6.4091
2023-04-22T05:34:12.506Z,6.4492
2023-04-22T05:35:20.341Z,6.4048
2023-04-22T05:36:31.174Z,6.3985
2023-04-22T05:37:41.246Z,6.4232
2023-04-22T05:38:49.284Z,6.4925
2023-04-22T05:39:57.367Z,6.5560
2023-04-22T05:41:05.675Z,6.6159
2023-04-22T05:42:13.640Z,6.5036
2023-04-22T05:43:21.583Z,6.4133
2023-04-22T05:44:29.683Z,6.3855
2023-04-22T05:45:37.816Z,6.3493
2023-04-22T05:46:45.846Z,6.2266
2023-04-22T05:47:54.105Z,6.2705
2023-04-22T05:49:01.920Z,6.4454
2023-04-22T05:50:10.040Z,6.6493
2023-04-22T05:51:18.171Z,6.8631
2023-04-22T05:52:26.038Z,6.8932
2023-04-22T05:53:34.183Z,6.9053
2023-04-22T05:54:42.179Z,7.0763
2023-04-22T05:55:50.339Z,6.9836
2023-04-22T05:56:58.399Z,6.8639
2023-04-22T05:58:06.461Z,6.7794
2023-04-22T05:59:14.663Z,6.6165
2023-04-22T06:00:22.576Z,6.5144
2023-04-22T06:01:30.638Z,6.5146
2023-04-22T06:02:38.835Z,6.4137
2023-04-22T06:03:46.913Z,6.4210
2023-04-22T06:04:55.048Z,6.5898
2023-04-22T06:06:02.936Z,6.6647
2023-04-22T06:07:10.906Z,6.9119
2023-04-22T06:08:18.965Z,7.1214
2023-04-22T06:09:27.147Z,6.9617
2023-04-22T06:10:35.231Z,6.8972
2023-04-22T06:11:43.304Z,6.9749
2023-04-22T06:12:51.417Z,6.9400
2023-04-22T06:13:59.363Z,7.0363
2023-04-22T06:15:07.642Z,6.9917
2023-04-22T06:16:15.651Z,7.1238
2023-04-22T06:17:23.685Z,7.0470
2023-04-22T06:18:31.720Z,7.0802
2023-04-22T06:19:40.084Z,7.2011
2023-04-22T06:20:47.788Z,7.3073
2023-04-22T06:21:55.797Z,7.5301
2023-04-22T06:23:03.870Z,7.6634
2023-04-22T06:24:11.996Z,7.6445
2023-04-22T06:25:20.067Z,7.7485
2023-04-22T06:26:28.198Z,7.7943
2023-04-22T06:27:36.194Z,7.7761
2023-04-22T06:28:44.262Z,7.7706
2023-04-22T06:29:52.482Z,7.7435
2023-04-22T06:31:00.407Z,7.7054
2023-04-22T06:32:08.558Z,7.7391
2023-04-22T06:33:16.650Z,7.6670
2023-04-22T06:34:24.658Z,7.6840
2023-04-22T06:35:32.575Z,7.5919
2023-04-22T06:36:40.657Z,7.3552
2023-04-22T06:37:48.738Z,7.4605
2023-04-22T06:38:56.917Z,7.6232
2023-04-22T06:40:04.905Z,7.5848
2023-04-22T06:41:13.007Z,7.5394
2023-04-22T06:42:21.032Z,7.5249
2023-04-22T06:43:29.152Z,7.4477
2023-04-22T06:44:37.157Z,7.4527
2023-04-22T06:45:45.291Z,7.4818
2023-04-22T06:46:54.758Z,7.4530
2023-04-22T06:48:06.226Z,7.6266
2023-04-22T06:49:14.273Z,7.8496
2023-04-22T06:50:22.352Z,7.8046
2023-04-22T06:51:30.341Z,7.6415
2023-04-22T06:52:38.423Z,7.9739
2023-04-22T06:53:46.487Z,8.1797
2023-04-22T06:54:54.599Z,8.1954
2023-04-22T06:56:02.672Z,7.9373
2023-04-22T06:57:10.705Z,7.9867
2023-04-22T06:58:18.809Z,8.1408
2023-04-22T06:59:26.887Z,8.3918
2023-04-22T07:00:34.963Z,8.3875
2023-04-22T07:01:43.095Z,8.4698
2023-04-22T07:02:51.191Z,8.1939
2023-04-22T07:03:59.129Z,7.9922
2023-04-22T07:05:07.146Z,7.9871
2023-04-22T07:06:15.204Z,7.9844
2023-04-22T07:07:23.256Z,8.0636
2023-04-22T07:08:31.463Z,8.1855
2023-04-22T07:09:39.708Z,8.1889
2023-04-22T07:10:47.558Z,8.4403
2023-04-22T07:11:55.571Z,8.2185
2023-04-22T07:13:03.768Z,8.4340
2023-04-22T07:14:11.688Z,8.4945
2023-04-22T07:15:19.895Z,8.5664
2023-04-22T07:16:27.972Z,8.6955
2023-04-22T07:17:36.010Z,8.6333
2023-04-22T07:18:43.897Z,8.8353
2023-04-22T07:19:51.971Z,8.8969
2023-04-22T07:21:00.035Z,9.0213
2023-04-22T07:22:08.127Z,9.2524
2023-04-22T07:23:16.183Z,9.4449
2023-04-22T07:24:24.383Z,9.3289
2023-04-22T07:25:32.322Z,9.3245
2023-04-22T07:26:40.528Z,9.2088
2023-04-22T07:27:48.514Z,9.1796
2023-04-22T07:28:56.541Z,9.1906
2023-04-22T07:30:04.586Z,9.3316
2023-04-22T07:31:12.683Z,9.2524
2023-04-22T07:32:20.855Z,9.0720
2023-04-22T07:33:28.747Z,9.2326
2023-04-22T07:34:36.791Z,9.3282
2023-04-22T07:35:44.829Z,9.2988
2023-04-22T07:36:52.870Z,9.3215
2023-04-22T07:38:01.035Z,9.2938
2023-04-22T07:39:09.251Z,9.1662
2023-04-22T07:40:17.165Z,9.2952
2023-04-22T07:41:25.245Z,9.3961
2023-04-22T07:42:33.415Z,9.3116
2023-04-22T07:43:41.355Z,9.4199
2023-04-22T07:44:49.455Z,9.4725
2023-04-22T07:45:57.538Z,9.4163
2023-04-22T07:47:05.690Z,9.4689
2023-04-22T07:48:13.622Z,9.5034
2023-04-22T07:49:21.632Z,9.6352
2023-04-22T07:50:29.731Z,9.5660
2023-04-22T07:51:37.827Z,9.7766
2023-04-22T07:52:45.940Z,10.0369
2023-04-22T07:53:53.912Z,10.1409
2023-04-22T07:55:02.162Z,10.0386
2023-04-22T07:56:10.105Z,9.6667
2023-04-22T07:57:18.151Z,9.7081
2023-04-22T07:58:26.234Z,9.7005
2023-04-22T07:59:34.300Z,9.8559
2023-04-22T08:00:42.494Z,10.0274
2023-04-22T08:01:50.651Z,10.1249
2023-04-22T08:02:58.577Z,9.9818
2023-04-22T08:04:06.656Z,9.8088
2023-04-22T08:05:14.634Z,9.8960
2023-04-22T08:06:23.022Z,10.1527
2023-04-22T08:07:33.394Z,10.1550
2023-04-22T08:08:43.734Z,10.2921
2023-04-22T08:09:51.939Z,10.4699
2023-04-22T08:10:59.932Z,10.3713
2023-04-22T08:12:07.906Z,10.3938
2023-04-22T08:13:18.136Z,10.3913
2023-04-22T08:14:28.877Z,10.4852
2023-04-22T08:15:36.940Z,10.6883
2023-04-22T08:16:44.935Z,10.9635
2023-04-22T08:17:53.039Z,11.2077
2023-04-22T08:19:01.280Z,11.0854
2023-04-22T08:20:09.263Z,11.3988
2023-04-22T08:21:17.295Z,11.7049
2023-04-22T08:22:25.344Z,11.5092
2023-04-22T08:23:33.488Z,11.5639
2023-04-22T08:24:41.444Z,11.7797
2023-04-22T08:25:49.583Z,11.8537
2023-04-22T08:26:57.617Z,12.0353
2023-04-22T08:28:05.707Z,11.6231
2023-04-22T08:29:13.743Z,11.4190
2023-04-22T08:30:21.741Z,11.6988
2023-04-22T08:31:29.772Z,11.8546
2023-04-22T08:32:37.877Z,12.0536
2023-04-22T08:33:46.083Z,12.0364
2023-04-22T08:34:57.720Z,12.1835
2023-04-22T08:36:06.984Z,12.3610
2023-04-22T08:37:15.065Z,12.1737
2023-04-22T08:38:23.056Z,12.1827
2023-04-22T08:39:31.298Z,12.3704
2023-04-22T08:40:39.349Z,12.5546
2023-04-22T08:41:47.276Z,12.6036
2023-04-22T08:42:55.425Z,12.4694
2023-04-22T08:44:03.334Z,12.3624
2023-04-22T08:45:11.436Z,12.4453
2023-04-22T08:46:19.471Z,12.4421
2023-04-22T08:47:27.625Z,12.5497
2023-04-22T08:48:35.734Z,12.6029
2023-04-22T08:49:43.641Z,12.7961
2023-04-22T08:50:51.898Z,12.7576
2023-04-22T08:51:59.971Z,12.7034
2023-04-22T08:53:07.912Z,12.7444
2023-04-22T08:54:16.062Z,13.0221
2023-04-22T08:55:24.040Z,13.3447
2023-04-22T08:56:32.125Z,13.4429
2023-04-22T08:57:40.196Z,13.4480
2023-04-22T08:58:48.231Z,13.4629
2023-04-22T08:59:56.242Z,13.3601
2023-04-22T09:01:04.318Z,13.3828
2023-04-22T09:02:12.543Z,13.3851
2023-04-22T09:03:20.574Z,13.5121
2023-04-22T09:04:28.604Z,13.6432
2023-04-22T09:05:36.687Z,13.8392
2023-04-22T09:06:44.664Z,14.0641
2023-04-22T09:07:52.872Z,14.2058
2023-04-22T09:09:00.826Z,14.4086
2023-04-22T09:10:08.862Z,14.4173
2023-04-22T09:11:16.911Z,14.5137
2023-04-22T09:12:24.994Z,14.5379
2023-04-22T09:13:33.014Z,14.5428
2023-04-22T09:14:41.031Z,14.2941
2023-04-22T09:15:49.075Z,14.2775
2023-04-22T09:16:57.388Z,14.3367
2023-04-22T09:18:05.295Z,14.4009
2023-04-22T09:19:13.429Z,14.5911
2023-04-22T09:20:21.488Z,14.5531
2023-04-22T09:21:29.494Z,14.5440
2023-04-22T09:22:37.523Z,14.6899
2023-04-22T09:23:45.720Z,14.6832
2023-04-22T09:24:53.723Z,14.5657
2023-04-22T09:26:01.744Z,14.7919
2023-04-22T09:27:09.768Z,14.8738
2023-04-22T09:28:17.919Z,15.1377
2023-04-22T09:29:25.837Z,15.2066
2023-04-22T09:30:34.082Z,15.1404
2023-04-22T09:31:41.994Z,15.2623
2023-04-22T09:32:50.146Z,15.2966
2023-04-22T09:33:58.146Z,14.8207
2023-04-22T09:35:06.311Z,14.5314
2023-04-22T09:36:14.291Z,14.2686
2023-04-22T09:37:22.337Z,14.5360
2023-04-22T09:38:30.432Z,14.8684
2023-04-22T09:39:38.711Z,15.0779
2023-04-22T09:40:46.488Z,14.8438
2023-04-22T09:41:54.659Z,14.9108
2023-04-22T09:43:02.601Z,15.2901
2023-04-22T09:44:10.711Z,15.6010
2023-04-22T09:45:18.940Z,15.7443
2023-04-22T09:46:26.742Z,15.8315
2023-04-22T09:47:34.916Z,15.6365
2023-04-22T09:48:43.031Z,15.3947
2023-04-22T09:49:51.083Z,15.3827
2023-04-22T09:50:59.072Z,15.4094
2023-04-22T09:52:07.174Z,15.3786
2023-04-22T09:53:15.216Z,15.3697
2023-04-22T09:54:23.242Z,15.2673
2023-04-22T09:55:31.477Z,15.4740
2023-04-22T09:56:39.394Z,15.3571
2023-04-22T09:57:47.432Z,15.4500
2023-04-22T09:58:55.446Z,15.6564
2023-04-22T10:00:03.472Z,15.9955
2023-04-22T10:01:11.594Z,15.8446
2023-04-22T10:02:19.698Z,15.8461
2023-04-22T10:03:27.853Z,15.9348
2023-04-22T10:04:36.073Z,15.9842
2023-04-22T10:05:43.854Z,16.1740
2023-04-22T10:06:51.931Z,16.1755
2023-04-22T10:08:00.183Z,16.2818
2023-04-22T10:09:09.411Z,16.3449
2023-04-22T10:10:16.102Z,16.1320
2023-04-22T10:11:24.540Z,16.1553
2023-04-22T10:12:35.532Z,16.0323
2023-04-22T10:13:45.112Z,15.8406
2023-04-22T10:14:53.372Z,15.9606
2023-04-22T10:16:01.336Z,16.4447
2023-04-22T10:17:09.386Z,16.5347
2023-04-22T10:18:17.381Z,16.8149
2023-04-22T10:19:25.609Z,16.5936
2023-04-22T10:20:33.620Z,17.1958
2023-04-22T10:21:41.675Z,17.8574
2023-04-22T10:22:49.723Z,18.6217
2023-04-22T10:23:57.773Z,19.2694
2023-04-22T10:25:06.027Z,20.3812
2023-04-22T10:26:13.845Z,21.1840
2023-04-22T10:27:21.878Z,21.4370
2023-04-22T10:28:29.998Z,21.6838
2023-04-22T10:29:38.316Z,21.4940
2023-04-22T10:30:46.185Z,21.4803
2023-04-22T10:31:54.260Z,21.5632
2023-04-22T10:33:02.328Z,22.2054
2023-04-22T10:34:10.313Z,22.5047
2023-04-22T10:35:18.496Z,22.7042
2023-04-22T10:36:26.486Z,22.9005
2023-04-22T10:37:34.514Z,21.9966
2023-04-22T10:38:42.556Z,21.7791
2023-04-22T10:39:50.740Z,22.0282
2023-04-22T10:40:58.726Z,22.7925
2023-04-22T10:42:06.727Z,23.7897
2023-04-22T10:43:14.778Z,23.7525
2023-04-22T10:44:23.006Z,23.5356
2023-04-22T10:45:30.951Z,23.8787
2023-04-22T10:46:39.099Z,23.7834
2023-04-22T10:47:47.256Z,23.9918
2023-04-22T10:48:55.225Z,23.9028
2023-04-22T10:50:03.291Z,24.3670
2023-04-22T10:51:11.506Z,24.7298
2023-04-22T10:52:19.531Z,24.3607
2023-04-22T10:53:27.568Z,24.1166
2023-04-22T10:54:35.606Z,24.0775
2023-04-22T10:55:43.780Z,23.9739
2023-04-22T10:56:57.584Z,22.8080
2023-04-22T10:58:04.648Z,22.5578
2023-04-22T10:59:12.738Z,23.1992
2023-04-22T11:00:20.861Z,22.6334
2023-04-22T11:01:28.917Z,21.5758
2023-04-22T11:02:36.951Z,21.5672
2023-04-22T11:03:45.038Z,22.2390
2023-04-22T11:04:53.083Z,21.9975
2023-04-22T11:06:01.081Z,21.1650
2023-04-22T11:07:09.251Z,21.7292
2023-04-22T11:08:17.201Z,21.6126
2023-04-22T11:09:25.161Z,21.1821
2023-04-22T11:10:33.284Z,21.8629
2023-04-22T11:11:41.328Z,21.6599
2023-04-22T11:12:49.435Z,21.3023
2023-04-22T11:13:57.482Z,20.8337
2023-04-22T11:15:05.615Z,20.6406
2023-04-22T11:16:13.659Z,20.5151
2023-04-22T11:17:21.704Z,20.8709
2023-04-22T11:18:29.758Z,21.1299
2023-04-22T11:19:38.212Z,21.4406
2023-04-22T11:20:45.932Z,20.7206
2023-04-22T11:21:54.088Z,20.2832
2023-04-22T11:23:02.093Z,20.1436
2023-04-22T11:24:10.033Z,19.9656
2023-04-22T11:25:18.077Z,19.7446
2023-04-22T11:26:26.182Z,19.8949
2023-04-22T11:27:34.234Z,19.5622
2023-04-22T11:28:42.344Z,19.6921
2023-04-22T11:29:50.391Z,19.5067
2023-04-22T11:30:58.469Z,18.9069
2023-04-22T11:32:06.426Z,18.9811
2023-04-22T11:33:14.515Z,19.3757
2023-04-22T11:34:22.688Z,19.8960
2023-04-22T11:35:30.809Z,20.5779
2023-04-22T11:36:38.820Z,20.8916
2023-04-22T11:37:46.863Z,21.3208
2023-04-22T11:38:54.811Z,21.0637
2023-04-22T11:40:21.373Z,21.2176
2023-04-22T11:41:15.897Z,21.6896
2023-04-22T11:42:24.079Z,20.5130
2023-04-22T11:43:31.908Z,20.2212
2023-04-22T11:44:39.975Z,20.7240
2023-04-22T11:45:48.094Z,20.4278
2023-04-22T11:46:56.317Z,19.9155
2023-04-22T11:48:04.220Z,19.7249
2023-04-22T11:49:12.373Z,19.6919
2023-04-22T11:50:20.241Z,19.6044
2023-04-22T11:51:28.347Z,19.8096
2023-04-22T11:52:36.372Z,20.2222
2023-04-22T11:53:44.454Z,20.4665
2023-04-22T11:54:52.495Z,21.3248
2023-04-22T11:56:00.713Z,21.1524
2023-04-22T11:57:08.784Z,20.5952
2023-04-22T11:58:16.703Z,20.2336
2023-04-22T11:59:24.923Z,20.9925
2023-04-22T12:00:32.945Z,22.2726
2023-04-22T12:01:41.118Z,22.5016
2023-04-22T12:02:49.132Z,22.7656
2023-04-22T12:03:57.208Z,22.1234
2023-04-22T12:05:05.127Z,20.9315
2023-04-22T12:06:13.097Z,20.2697
2023-04-22T12:07:21.186Z,19.9282
2023-04-22T12:08:29.238Z,19.1331
2023-04-22T12:09:37.484Z,18.8634
2023-04-22T12:10:45.384Z,18.5691
2023-04-22T12:11:53.434Z,18.3308
2023-04-22T12:13:01.578Z,17.9560
2023-04-22T12:14:09.569Z,17.7565
2023-04-22T12:15:18.751Z,17.8223
2023-04-22T12:16:25.749Z,17.5490
2023-04-22T12:17:33.727Z,17.7993
2023-04-22T12:18:41.799Z,17.6749
2023-04-22T12:19:49.916Z,17.1304
2023-04-22T12:20:58.001Z,17.2997
2023-04-22T12:22:06.246Z,17.3808
2023-04-22T12:23:14.012Z,17.3985
2023-04-22T12:24:22.124Z,17.3590
2023-04-22T12:25:30.145Z,17.2843
2023-04-22T12:26:38.202Z,17.4500
2023-04-22T12:27:46.257Z,17.4109
2023-04-22T12:28:54.318Z,17.7657
2023-04-22T12:30:02.466Z,17.8958
2023-04-22T12:31:10.558Z,17.6858
2023-04-22T12:32:18.550Z,17.2555
2023-04-22T12:33:26.554Z,17.2301
2023-04-22T12:34:34.653Z,17.4172
2023-04-22T12:35:42.763Z,17.7935
2023-04-22T12:36:50.753Z,18.1266
2023-04-22T12:37:58.830Z,18.3419
2023-04-22T12:39:06.861Z,18.4230
2023-04-22T12:40:14.960Z,18.6396
2023-04-22T12:41:23.281Z,18.5515
2023-04-22T12:42:31.138Z,18.5769
2023-04-22T12:43:39.235Z,18.8100
2023-04-22T12:44:47.188Z,19.1573
2023-04-22T12:45:55.329Z,19.1907
2023-04-22T12:47:03.310Z,18.9223
2023-04-22T12:48:11.717Z,18.4947
2023-04-22T12:49:19.477Z,18.3701
2023-04-22T12:50:27.621Z,18.2174
2023-04-22T12:51:35.955Z,18.7941
2023-04-22T12:52:43.651Z,19.1298
2023-04-22T12:53:51.691Z,18.8142
2023-04-22T12:54:59.772Z,19.0247
2023-04-22T12:56:07.896Z,19.6128
2023-04-22T12:57:15.866Z,19.7629
2023-04-22T12:58:23.912Z,19.6952
2023-04-22T12:59:32.109Z,19.8748
2023-04-22T13:00:40.119Z,19.8590
2023-04-22T13:01:48.267Z,19.3530
2023-04-22T13:02:56.307Z,19.0615
2023-04-22T13:04:04.543Z,18.9025
2023-04-22T13:05:12.442Z,18.5078
2023-04-22T13:06:20.472Z,18.7463
2023-04-22T13:07:28.382Z,18.7346
2023-04-22T13:08:36.459Z,18.6887
2023-04-22T13:09:44.515Z,18.4680
2023-04-22T13:10:52.685Z,18.6118
2023-04-22T13:12:00.794Z,18.8638
2023-04-22T13:14:21.694Z,19.3828
2023-04-22T13:15:29.798Z,19.7213
2023-04-22T13:16:37.962Z,20.5075
2023-04-22T13:17:47.624Z,20.3358
2023-04-22T13:18:58.817Z,20.2716
2023-04-22T13:20:06.798Z,19.9906
2023-04-22T13:21:14.902Z,19.6421
2023-04-22T13:22:22.932Z,19.2309
2023-04-22T13:23:31.130Z,18.3066
2023-04-22T13:24:39.126Z,17.9787
2023-04-22T13:25:47.131Z,18.0878
2023-04-22T13:26:55.289Z,17.9030
2023-04-22T13:28:03.315Z,17.4977
2023-04-22T13:29:11.392Z,17.3350
2023-04-22T13:30:19.508Z,17.2744
2023-04-22T13:31:27.505Z,17.2074
2023-04-22T13:32:35.549Z,17.4212
2023-04-22T13:33:43.565Z,17.3121
2023-04-22T13:34:51.640Z,16.9131
2023-04-22T13:35:59.811Z,16.5582
2023-04-22T13:37:07.746Z,16.7760
2023-04-22T13:38:15.824Z,16.9852
2023-04-22T13:39:23.874Z,16.6211
2023-04-22T13:40:32.035Z,16.6468
2023-04-22T13:41:40.117Z,16.6865
2023-04-22T13:42:48.152Z,16.5887
2023-04-22T13:43:56.260Z,16.6488
2023-04-22T13:45:04.316Z,16.7125
2023-04-22T13:46:12.377Z,16.6907
2023-04-22T13:47:20.490Z,16.2896
2023-04-22T13:48:28.675Z,16.0302
2023-04-22T13:49:36.491Z,15.9491
2023-04-22T13:50:44.578Z,15.8883
2023-04-22T13:51:52.586Z,16.2120
2023-04-22T13:53:00.628Z,16.1368
2023-04-22T13:54:08.736Z,16.1954
2023-04-22T13:55:16.860Z,16.1937
2023-04-22T13:56:24.806Z,16.2429
2023-04-22T13:57:32.939Z,16.3729
2023-04-22T13:58:41.326Z,16.6299
2023-04-22T13:59:49.147Z,16.5124